Aeroporto :
LOGIN :

Iscrizione | Disclaimer

   EN    FR    IT 

 










Sommario :    VFR   VFR Marginale   IFR   IFR Intensivo   IFR Molto Intensivo
Visibilità : 
Base nubi : 
>= 8 km
>= 3000ft
5 / 8 km
1000 / 3000 ft
1500m / 5 km
500 / 1000 ft
800 / 1500m
200 / 500 ft
< 800m
< 200 ft
Simboli :   Temporali  Nebbia  Neve Forte  Precipitazioni Forti  Vento > 20 kt
SIGMETs :   Varie  Temporali  Ghiacco  Turbolenza  Onda orograficha  Ceneri Vulcaniche






- Altitudine del aeroporto : 74 ft
- Codice IATA : EIN


EHEH - Eindhoven

ULTIMO METAR :
  • 140155Z AUTO 18002KT 5000 BR NCD 19/19 Q1011 WHT

METARs OBSOLETI :
  • 140135Z AUTO VRB02KT 5000 BR OVC270 19/18 Q1012 WHT
  • 140125Z AUTO 15003KT 150V220 5000 BR OVC260 20/19 Q1012 WHT
  • 140059Z AUTO 18004KT 180V240 5000 BR OVC260 19/18 Q1012 WHT
  • 140055Z AUTO 17003KT 180V240 4900 BR OVC260 19/18 Q1012 GRN
  • 140045Z AUTO 15002KT 5000 BR OVC260 19/19 Q1012 WHT
  • 140034Z AUTO 19003KT 4200 BR OVC240 19/19 Q1012 GRN
  • 140025Z AUTO VRB02KT 3200 BR OVC240 19/19 Q1012 YLO
  • 140012Z AUTO 16001KT 3100 BR OVC220 19/19 Q1012 YLO
  • 140003Z AUTO VRB01KT 3900 BR OVC220 19/19 Q1012 GRN
  • 132355Z AUTO VRB01KT 4000 BR OVC230 20/19 Q1012 GRN
  • 132329Z AUTO 14001KT 4800 BR OVC220 20/19 Q1012 GRN
  • 132325Z AUTO 13002KT 5000 BR OVC220 20/19 Q1012 WHT

TAF TAF EHEH
Valido dal 14 a 00 ore il 15 a 06 ore UTC


132255Z 1400/1506 VRB02KT 4500 BR MIFG SCT060
PROB30 1400/1406 1500 BCFG
BECMG 1407/1409 23006KT 9999 NSW
PROB40
TEMPO 1411/1421 4000 SHRA FEW040CB BKN050
PROB30
TEMPO 1413/1421 VRB15G28KT 2500 TSRAGR SCT030CB BKN040
PROB40 1500/1506 2500 BR MIFG



MetMap, La meteo Aeronautica in un colpo d'occhio ! - Copyright ORBIFLY Dicembre 2007 - Disclaimer

ORBIFLY MET'MAP TEAM :

Programmazione e sviluppo : Alexandra Zaïnal
Concezione : Baudouin d'Aumeries
Aiuto per la programmazione : Marc-Olivier Méhu
Supporto tecnico e logistico : Manuel Goepfert
Aiuto per la traduzione : Arnaldo La Scala

Contatto : metmap@orbifly.com




FONTI E CREDITI :

   NOAA